New Franken, Wisconsin
Current Conditions -  °F | °C
As of 11:53 PM on Friday 24 Oct 2014 (Local Time) from KGRB Reporting Station
Few Clouds Few Clouds  
Wind Chill: 12°   Ceiling: Unl
Heat Index: 12°   Visibility: 8mi
Dew Point: 10°   Wind: 7mph
Humidity: 89%   Direction: 200°SSW
Pressure: 29.83"   Gusts: NA
Location:  44.53°N, 87.83°W
Report Text: KGRB 250453Z AUTO 20006KT 8SM FEW016 12/10 A2983 RMK AO2 SLP104 T01170100
Loading
Personal Weather Stations






























Interactive Weather Map
Tropical Storm Tracking
New forecast layout! Learn more

10-Day Weather Forecast

Advertisements
Track Severe Weather on mobile